Tiempo atmosférico en la estación meteorológica de Alicante/Alacant, Alacant/Alicante (81 m.)



Fecha
DESCASC
Temp. máxima en grados centígrados (hora)
DESCASC
Temp. mínima en grados centígrados (hora)
DESCASC
Temp. media en grados centígrados
DESCASC
Racha de viento máxima en m/sg (hora)
DESCASC
Velocidad máxima media en intervalos de 10 minutos(hora)
DESCASC
Precipitaciones diarias en mm
DESCASC
Precipitaciones de 00:00 a 06:00 en mm
DESCASC
Precipitaciones de 06:00 a 12:00 en mm
DESCASC
Precipitaciones de 12:00 a 18:00 en mm
DESCASC
Precipitaciones de 18:00 a 24:00 en mm
DESCASC
16-06-2019 25 (13:50) 17 (05:00) 21 8.06 (14:00) 4.17 (11:10) 0 0 0 0 0
15-06-2019 28.4 (15:00) 18 (07:10) 23.2 6.67 (15:20) 3.89 (12:40) 0 0 0 0 0
14-06-2019 28.7 (16:20) 18.4 (07:10) 23.6 8.89 (14:30) 5 (16:10) 0.2 0 0.2 0 0
13-06-2019 25.9 (15:40) 18.3 (00:00) 22.1 11.67 (14:00) 6.39 (14:50) 0 0 0 0 0
12-06-2019 23.7 (12:30) 14.6 (00:00) 19.2 10 (17:50) 6.11 (19:50) 0 0 0 0 0
11-06-2019 24.9 (15:20) 16.3 (00:00) 20.6 11.11 (19:00) 6.11 (18:00) 0 0 0 0 0
10-06-2019 25.7 (15:20) 18.8 (00:00) 22.3 8.06 (06:40) 4.17 (15:40) 0 0 0 0 0
09-06-2019 26.3 (17:40) 19 (00:00) 22.6 6.39 (16:20) 3.33 (16:20) 0 0 0 0 0
08-06-2019 25.2 (13:40) 17.6 (00:00) 21.4 12.5 (11:30) 6.94 (15:10) 0 0 0 0 0
07-06-2019 26.4 (14:00) 15.4 (00:00) 20.9 6.39 (14:20) 3.89 (15:00) 0 0 0 0 0
06-06-2019 25.3 (14:20) 15.7 (00:00) 20.5 8.06 (15:00) 4.17 (15:40) 0 0 0 0 0
05-06-2019 29.4 (18:00) 16.1 (00:00) 22.8 12.5 (12:30) 5.28 (12:30) 0 0 0 0 0
04-06-2019 26.2 (16:00) 15.1 (00:00) 20.7 6.67 (14:30) 4.17 (14:30) 0 0 0 0 0
03-06-2019 26.7 (17:20) 14.2 (00:00) 20.5 5.56 (15:10) 3.33 (15:10) 0 0 0 0 0
02-06-2019 27 (14:00) 13.3 (00:00) 20.2 5.56 (16:00) 3.33 (14:10) 0 0 0 0 0
01-06-2019 26.1 (15:20) 12.9 (00:00) 19.5 5.28 (11:30) 3.33 (15:10) 0 0 0 0 0
31-05-2019 24.1 (17:50) 13.4 (00:00) 18.8 6.39 (15:40) 3.61 (15:00) 0 0 0 0 0
30-05-2019 23.7 (16:10) 12.9 (00:00) 18.3 7.22 (14:50) 3.89 (14:30) 0.4 0 0.4 0 0
29-05-2019 22.4 (13:50) 14.5 (00:00) 18.4 10.56 (13:50) 5.56 (15:00) 0 0 0 0 0
28-05-2019 24.6 (13:00) 17.5 (00:00) 21.1 8.61 (15:00) 5.28 (15:00) 0 0 0 0 0
27-05-2019 25.2 (11:20) 14.4 (00:00) 19.8 6.39 (15:30) 3.61 (12:20) 0 0 0 0 0
26-05-2019 26.4 (13:20) 13.9 (00:00) 20.1 8.89 (16:00) 4.72 (13:40) 0 0 0 0 0
25-05-2019 23.8 (17:10) 16.4 (00:00) 20.1 9.72 (14:30) 5.56 (16:00) 0 0 0 0 0
24-05-2019 21.2 (13:50) 17.1 (00:00) 19.2 10 (18:20) 5.56 (17:20) 0.2 0 0 0.2 0
23-05-2019 28.8 (13:40) 13.7 (00:00) 21.2 6.39 (15:40) 3.33 (15:40) 0 0 0 0 0
22-05-2019 -- (--) -- (--) -- -- (--) -- (--) -- 0 -- 0 0

Gráficas

Temp. máximas Temp. mínimas Temp. medias Precipitaciones Rachas de viento máximas Velocidades máximas media en intervalos de 10 minutos

Datos horarios

Fecha y hora oficial Temperatura (ºC) Velocidad del viento (km/h) Dirección del viento Racha (km/h) Dirección de racha Precipitación (mm) Presión (hPa) Tendencia (hPa) Humedad (%)
2019-06-20 23:00:00 20.9 4 Sur 8 Sudeste 0 1002.9 0.6 87
2019-06-20 22:00:00 21.1 2 Sudeste 7 Sudeste 0 1002.5 0.3 83
2019-06-20 21:00:00 21.5 6 Sudeste 12 Sudeste 0 1002.2 -0.4 81
2019-06-20 20:00:00 22.5 5 Sudeste 12 Sudeste 0 1002.3 -0.3 76
2019-06-20 19:00:00 22.3 4 Sudeste 14 Sudeste 0 1002.2 -0.9 78
2019-06-20 18:00:00 22.6 7 Sudeste 19 Sur 0 1002.6 -0.7 77
2019-06-20 17:00:00 24 10 Sudeste 23 Sudeste 0 1002.6 -1.1 71
2019-06-20 16:00:00 24.1 9 Sudeste 19 Sudeste 0 1003.1 -0.7 72
2019-06-20 15:00:00 23.4 11 Sudeste 24 Sudeste 0 1003.3 0 73
2019-06-20 14:00:00 23.7 13 Sudeste 23 Sudeste 0 1003.7 0.9 71
2019-06-20 13:00:00 23.5 10 Este 23 Sudeste 0 1003.8 1.2 72
2019-06-20 12:00:00 25.5 9 Este 21 Este 0 1003.3 0.8 63
2019-06-20 11:00:00 25.2 13 Este 21 Este 0 1002.8 0.5 62
2019-06-20 10:00:00 24.6 8 Este 16 Este 0 1002.6 0.5 65
2019-06-20 09:00:00 22.6 4 Nordeste 11 Nordeste 0 1002.5 1.2 74
2019-06-20 08:00:00 19.7 5 Nordeste 13 Nordeste 0 1002.3 1.3 86
2019-06-20 07:00:00 18.7 8 Nordeste 12 Norte 0 1002.1 0.3 84
2019-06-20 06:00:00 19 5 Sudeste 12 Sur 0 1001.3 -1.3 83
2019-06-20 05:00:00 18.9 4 Oeste 8 Oeste 0 1001 -1.9 66
2019-06-20 04:00:00 19.8 2 Noroeste 8 Norte 0 1001.8 -1.1 88
2019-06-20 03:00:00 20.3 3 Norte 6 Norte 0 1002.6 -0.3 85
2019-06-20 02:00:00 20.9 4 Sudoeste 6 Sudoeste 0 1002.9 0.1 85
2019-06-20 01:00:00 21.2 4 Sur 9 Sur 0 1002.9 0.6 84
2019-06-20 00:00:00 21.8 6 Sur 10 Sur 0 1002.9 0.7 85
2019-06-19 23:00:00 22.6 5 Sudeste 8 Sudeste 0 1002.8 0.5 78
2019-06-19 22:00:00 23.6 4 Sudeste 11 Sudeste 0 1002.3 -0.1 73
2019-06-19 21:00:00 26.3 4 Este 10 Sudeste 0 1002.2 -0.5 53
2019-06-19 20:00:00 28.2 5 Sudeste 13 Este 0 1002.3 -0.6 39
2019-06-19 19:00:00 30.1 6 Sudeste 13 Sudeste 0 1002.4 -1.1 20
2019-06-19 18:00:00 30.4 5 Sudeste 15 Sudeste 0 1002.7 -1.2 29
2019-06-19 17:00:00 30 6 Sudeste 17 Sudeste 0 1002.9 -1.3 37
2019-06-19 16:00:00 29 7 Sudeste 19 Sur 0 1003.5 -0.8 40
2019-06-19 15:00:00 27.3 11 Sudeste 18 Sudeste 0 1003.9 0 47
2019-06-19 14:00:00 26.4 10 Sudeste 21 Sudeste 0 1004.2 0.3 57
2019-06-19 13:00:00 26.8 10 Sudeste 18 Sudeste 0 1004.3 0.2 58
2019-06-19 12:00:00 27.8 9 Este 15 Este 0 1003.9 -0.1 42
2019-06-19 11:00:00 26.3 7 Este 12 Este 0 1003.9 0.3 48
2019-06-19 10:00:00 24.7 6 Nordeste 12 Nordeste 0 1004.1 0.7 50
2019-06-19 09:00:00 21.9 4 Nordeste 11 Nordeste 0 1004 0.6 58
2019-06-19 08:00:00 18.7 3 Este 9 Sur 0 1003.6 -0.1 65
2019-06-19 07:00:00 17.5 4 Oeste 10 Oeste 0 1003.4 -0.7 63
2019-06-19 06:00:00 17.8 4 Oeste 9 Noroeste 0 1003.4 -0.9 70
2019-06-19 05:00:00 18.4 4 Noroeste 6 Noroeste 0 1003.7 -0.9 83
2019-06-19 04:00:00 18.9 4 Noroeste 10 Sudoeste 0 1004.1 -0.9 85
2019-06-19 03:00:00 19.7 6 Sudoeste 11 Sudoeste 0 1004.3 -1.2 88
2019-06-19 02:00:00 19.7 4 Sudoeste 8 Sudoeste 0 1004.6 -0.8 86
2019-06-19 01:00:00 20.1 4 Oeste 7 Sudoeste 0 1005 0.3 85
2019-06-19 00:00:00 20.5 4 Oeste 9 Oeste 0 1005.5 1.3 83
2019-06-18 23:00:00 21 6 Sudoeste 17 Sur 0 1005.4 1 79
2019-06-18 22:00:00 21.7 9 Sur 15 Sur 0 1004.7 0.4 78
2019-06-18 21:00:00 22.7 6 Sur 14 Sur 0 1004.2 -0.4 63
2019-06-18 20:00:00 24.2 8 Sur 15 Sur 0 1004.4 -0.6 59
2019-06-18 19:00:00 25.7 8 Sudeste 16 Sudeste 0 1004.3 -1 56
2019-06-18 18:00:00 26 8 Sudeste 17 Sudeste 0 1004.6 -1.3 55
2019-06-18 17:00:00 26.7 10 Sur 21 Sudeste 0 1005 -1.5 53
2019-06-18 16:00:00 26.1 12 Sudeste 23 Sudeste 0 1005.3 -1.3 53
2019-06-18 15:00:00 26.1 12 Sudeste 23 Sudeste 0 1005.9 -0.6 51
2019-06-18 14:00:00 25.7 8 Sudeste 20 Sudeste 0 1006.5 0.1 54
2019-06-18 13:00:00 25.8 9 Sur 17 Sudoeste 0 1006.6 0 53
2019-06-18 12:00:00 24.8 9 Sudeste 18 Este 0 1006.5 0 63
2019-06-18 11:00:00 24.5 6 Sudeste 13 Sur 0 1006.4 0.3 61
2019-06-18 10:00:00 23.8 7 Sudeste 12 Sudeste 0 1006.6 0.9 54
2019-06-18 09:00:00 21.9 3 Sudeste 6 Sudeste 0 1006.5 1.2 49
2019-06-18 08:00:00 17.5 3 Norte 6 Norte 0 1006.1 0.9 54
2019-06-18 07:00:00 15.2 4 Norte 6 Noroeste 0 1005.7 0 61
2019-06-18 06:00:00 15.4 3 Oeste 5 Oeste 0 1005.3 -0.8 57
2019-06-18 05:00:00 15.8 3 Oeste 6 Oeste 0 1005.2 -1.2 58
2019-06-18 04:00:00 16.4 3 Norte 7 Oeste 0 1005.7 -1.4 55
2019-06-18 03:00:00 17 4 Oeste 7 Oeste 0 1006.1 -1 54
2019-06-18 02:00:00 17.8 2 Noroeste 4 Oeste 0 1006.4 -0.6 59
2019-06-18 01:00:00 18.8 3 Oeste 8 Oeste 0 1007.1 0.6 59
2019-06-18 00:00:00 20 3 Oeste 5 Oeste 0 1007.1 0.7 70
2019-06-17 23:00:00 20.6 0 Calma 6 Sudoeste 0 1007 0.5 64
2019-06-17 22:00:00 21.8 4 Sudoeste 8 Sudoeste 0 1006.5 0.2 71
2019-06-17 21:00:00 22.6 4 Sudeste 10 Sudeste 0 1006.4 -0.2 63
2019-06-17 20:00:00 23.8 6 Sur 17 Sudeste 0 1006.5 -0.4 62
2019-06-17 19:00:00 25 7 Sudeste 13 Sudeste 0 1006.3 -0.9 54
2019-06-17 18:00:00 24.8 8 Sudeste 17 Sudeste 0 1006.6 -0.7 59
2019-06-17 17:00:00 25.3 12 Sudeste 24 Sudeste 0 1006.9 -0.7 54
2019-06-17 16:00:00 26.1 13 Sudeste 23 Sudeste 0 1007.2 -0.8 50
2019-06-17 15:00:00 26.8 10 Sudeste 23 Este 0 1007.3 -0.7 48
2019-06-17 14:00:00 26.7 12 Sudeste 22 Sur 0 1007.6 -0.5 48
2019-06-17 13:00:00 27.1 8 Sur 22 Sudeste 0 1008 -0.2 48
2019-06-17 12:00:00 27 10 Sudeste 18 Sudeste 0 1008 -0.1 41
2019-06-17 11:00:00 26.8 7 Sur 13 Sur 0 1008.1 0.3 41
2019-06-17 10:00:00 24.6 5 Sur 9 Sur 0 1008.2 0.7 42
2019-06-17 09:00:00 21.8 4 Sur 6 Sudoeste 0 1008.1 0.8 51
2019-06-17 08:00:00 17.4 2 Oeste 8 Noroeste 0 1007.8 0.2 58
2019-06-17 07:00:00 15.8 4 Oeste 8 Oeste 0 1007.5 -0.5 61
2019-06-17 06:00:00 16.1 4 Noroeste 11 Oeste 0 1007.3 -1.3 68
2019-06-17 05:00:00 16.6 4 Noroeste 9 Oeste 0 1007.6 -1.3 73
2019-06-17 04:00:00 17 2 Noroeste 5 Noroeste 0 1008 -1.1 73
2019-06-17 03:00:00 17.5 3 Oeste 7 Oeste 0 1008.6 -0.6 71
2019-06-17 02:00:00 18.1 3 Noroeste 7 Noroeste 0 1008.9 -0.4 69
2019-06-17 01:00:00 18.7 2 Oeste 5 Norte 0 1009.1 0.5 67
2019-06-17 00:00:00 19.8 3 Norte 5 Norte 0 1009.2 0.7 60
2019-06-16 23:00:00 20.9 2 Norte 7 Noroeste 0 1009.3 0.4 56
2019-06-16 22:00:00 21.1 5 Norte 12 Este 0 1008.6 -0.5 60
2019-06-16 21:00:00 21.4 5 Este 13 Nordeste 0 1008.5 0 62
2019-06-16 20:00:00 22.5 8 Este 17 Nordeste 0 1008.9 -0.4 57
2019-06-16 19:00:00 22.8 9 Este 21 Nordeste 0 1009.1 -0.2 63
2019-06-16 18:00:00 23.2 13 Este 24 Nordeste 0 1008.5 -1.3 61
2019-06-16 17:00:00 22.6 12 Este 26 Este 0 1009.3 -1.1 63
2019-06-16 16:00:00 23.4 13 Este 26 Nordeste 0 1009.3 -1.2 58
2019-06-16 15:00:00 24 14 Este 26 Nordeste 0 1009.8 -0.7 56
2019-06-16 14:00:00 24.4 15 Este 29 Este 0 1010.4 -0.2 53
2019-06-16 13:00:00 23.8 13 Nordeste 27 Nordeste 0 1010.5 0.2 58
2019-06-16 12:00:00 23.8 13 Este 27 Este 0 1010.5 0.5 56
2019-06-16 11:00:00 23.1 14 Este 28 Este 0 1010.6 1.1 60
2019-06-16 10:00:00 23.9 9 Este 19 Este 0 1010.3 1.5 54
2019-06-16 09:00:00 21.9 4 Oeste 10 Oeste 0 1010 1.6 66
2019-06-16 08:00:00 18.5 3 Oeste 7 Oeste 0 1009.5 1.4 63
2019-06-16 07:00:00 17.9 4 Nordeste 12 Este 0 1008.8 0.5 72
2019-06-16 06:00:00 17.6 9 Nordeste 15 Nordeste 0 1008.4 -0.4 51
2019-06-16 05:00:00 17 4 Norte 10 Nordeste 0 1008.1 -1 54
2019-06-16 04:00:00 18 4 Noroeste 10 Noroeste 0 1008.3 -1.1 48
2019-06-16 03:00:00 18.6 4 Noroeste 10 Noroeste 0 1008.8 -0.6 47
2019-06-16 02:00:00 18.7 4 Oeste 7 Oeste 0 1009.1 0 51
2019-06-16 01:00:00 19.6 3 Oeste 8 Noroeste 0 1009.4 1.1 52
2019-06-16 00:00:00 20.4 3 Oeste 6 Noroeste 0 1009.4 1.6 55
2019-06-15 23:00:00 20.9 2 Noroeste 5 Norte 0 1009.1 1.6 56
2019-06-15 22:00:00 21.8 3 Noroeste 12 Sudeste 0 1008.3 1.4 54
2019-06-15 21:00:00 22.7 7 Sudeste 17 Sudeste 0 1007.8 1 51
2019-06-15 20:00:00 23.4 10 Sudeste 22 Sudeste 0 1007.5 0.6 55
2019-06-15 19:00:00 25.3 12 Sudeste 23 Sudeste 0 1006.9 -0.2 45
2019-06-15 18:00:00 26.5 10 Sudeste 21 Sudoeste 0 1006.8 -0.4 41
2019-06-15 17:00:00 27.5 10 Sur 21 Sudeste 0 1006.9 -0.8 41
2019-06-15 16:00:00 27.3 11 Sudeste 24 Sudeste 0 1007.1 -0.9 40
2019-06-15 15:00:00 28.3 11 Sudeste 21 Sur 0 1007.2 -0.8 30
2019-06-15 14:00:00 28 10 Sudeste 20 Sudeste 0 1007.7 -0.1 31
2019-06-15 13:00:00 26 13 Sudeste 23 Sudeste 0 1008 0.3 38
2019-06-15 12:00:00 26.3 10 Sudeste 19 Sudeste 0 1008 0.9 34
2019-06-15 11:00:00 27.2 9 Sudeste 17 Sudeste 0 1007.8 1.6 32
2019-06-15 10:00:00 26 5 Norte 17 Noroeste 0 1007.7 2 24
2019-06-15 09:00:00 24.1 3 Norte 11 Nordeste 0 1007.1 2.3 28
2019-06-15 08:00:00 19.5 5 Norte 8 Norte 0 1006.2 2 42
2019-06-15 07:00:00 18.2 4 Oeste 7 Noroeste 0 1005.7 2 43
2019-06-15 06:00:00 19.9 3 Noroeste 17 Noroeste 0 1004.8 1 38
2019-06-15 05:00:00 21.6 6 Noroeste 22 Noroeste 0 1004.2 0.2 31
2019-06-15 04:00:00 21.9 9 Noroeste 23 Norte 0 1003.7 -0.5 31
2019-06-15 03:00:00 18.9 2 Sudeste 6 Noroeste 0 1003.8 -0.2 82
2019-06-15 02:00:00 19.5 3 Noroeste 6 Norte 0 1004 0.4 80
2019-06-15 01:00:00 20 4 Norte 8 Norte 0 1004.2 1 77
2019-06-15 00:00:00 20.7 0 Calma 9 Este 0 1004 1.2 76
2019-06-14 23:00:00 21 6 Nordeste 12 Nordeste 0 1003.6 1.2 73
2019-06-14 22:00:00 21.7 8 Nordeste 12 Este 0 1003.2 1.2 70
2019-06-14 21:00:00 22.8 7 Sudeste 12 Sudeste 0 1002.8 0.7 64
2019-06-14 20:00:00 24.5 6 Este 15 Sudeste 0 1002.4 0.3 57
2019-06-14 19:00:00 26.9 10 Sur 27 Sur 0 1002 -0.1 48
2019-06-14 18:00:00 27.8 15 Sur 30 Sur 0 1002.1 -0.4 40
2019-06-14 17:00:00 28.1 12 Sur 32 Sur 0 1002.1 -0.5 52
2019-06-14 16:00:00 28.5 15 Sur 26 Sudoeste 0 1002.1 -0.6 47
2019-06-14 15:00:00 26.9 17 Sur 32 Sur 0 1002.5 -0.5 53
2019-06-14 14:00:00 26.8 13 Sudeste 27 Sur 0 1002.6 -0.4 57
2019-06-14 13:00:00 27.2 9 Sudoeste 21 Sudoeste 0 1002.7 0.2 44
2019-06-14 12:00:00 24.3 10 Sudoeste 24 Sudoeste 0 1003 1 56
2019-06-14 11:00:00 20.9 12 Sudoeste 21 Sudoeste 0.2 1003 1.6 72
2019-06-14 10:00:00 22.4 9 Sudoeste 21 Sudoeste 0 1002.5 1.1 50
2019-06-14 09:00:00 21.9 8 Sur 12 Sudoeste 0 1002 1.9 49
2019-06-14 08:00:00 19.7 4 Norte 11 Noroeste 0 1001.4 2.4 55
2019-06-14 07:00:00 18.5 5 Oeste 10 Noroeste 0 1001.4 1.7 66
2019-06-14 06:00:00 19.2 4 Norte 17 Nordeste 0 1000.1 0.6 58
2019-06-14 05:00:00 19.5 8 Nordeste 15 Sur 0 999 0 56
2019-06-14 04:00:00 19.5 11 Sur 19 Sur 0 999.7 0.2 50
2019-06-14 03:00:00 19.4 8 Sur 12 Sudoeste 0 999.5 -0.9 54
2019-06-14 02:00:00 19.4 4 Sudoeste 12 Oeste 0 999 -2.1 64
2019-06-14 01:00:00 20 4 Oeste 8 Oeste 0 999.5 0.2 64
2019-06-14 00:00:00 20.8 6 Oeste 13 Oeste 0 1000.4 1.3 62
2019-06-13 23:00:00 21.4 5 Noroeste 17 Norte 0 1001.1 2.2 48
2019-06-13 22:00:00 22.4 9 Norte 20 Nordeste 0 999.3 0.5 48
2019-06-13 21:00:00 22.6 10 Nordeste 26 Nordeste 0 999.1 -0.1 55
2019-06-13 20:00:00 23.2 16 Este 30 Este 0 998.9 -0.6 53
2019-06-13 19:00:00 24.4 16 Este 35 Este 0 998.8 -1.3 51
2019-06-13 18:00:00 25.2 17 Este 35 Este 0 999.2 -1.5 49
2019-06-13 17:00:00 25 18 Este 37 Este 0 999.5 -1.9 48
2019-06-13 16:00:00 25.4 20 Este 41 Este 0 1000.1 -1.7 46
2019-06-13 15:00:00 25.4 19 Este 41 Nordeste 0 1000.7 -1.8 45
2019-06-13 14:00:00 24.7 21 Este 42 Nordeste 0 1001.4 -1.6 48
2019-06-13 13:00:00 24.7 14 Este 42 Este 0 1001.8 -0.7 52
2019-06-13 12:00:00 24 17 Este 33 Este 0 1002.5 -1 56
2019-06-13 11:00:00 23.6 16 Nordeste 27 Este 0 1003 -0.1 52
2019-06-13 10:00:00 22 14 Nordeste 28 Este 0 1002.5 -0.2 58
2019-06-13 09:00:00 20.4 9 Nordeste 19 Norte 0 1003.5 1.1 64
2019-06-13 08:00:00 18.7 5 Nordeste 13 Este 0 1003.1 0.8 78
2019-06-13 07:00:00 18.4 6 Nordeste 16 Nordeste 0 1002.7 0.1 83
2019-06-13 06:00:00 18.9 9 Nordeste 18 Nordeste 0 1002.4 -0.8 83
2019-06-13 05:00:00 19 9 Nordeste 27 Este 0 1002.3 -1.6 84
2019-06-13 04:00:00 19.3 13 Nordeste 26 Nordeste 0 1002.6 -1.7 86
2019-06-13 03:00:00 19.4 12 Nordeste 24 Este 0 1003.2 -1.2 87
2019-06-13 02:00:00 19.7 10 Este 21 Este 0 1003.9 -0.4 86
2019-06-13 01:00:00 19.4 11 Nordeste 19 Este 0 1004.3 0.4 85
2019-06-13 00:00:00 19.5 8 Nordeste 21 Este 0 1004.4 0.8 79
2019-06-12 23:00:00 19.3 13 Nordeste 27 Este 0 1004.3 0.7 78
2019-06-12 22:00:00 19.4 14 Este 28 Este 0 1003.9 0.2 76
2019-06-12 21:00:00 19.2 14 Este 31 Este 0 1003.6 -0.5 73
2019-06-12 20:00:00 19.9 17 Este 36 Nordeste 0 1003.6 -0.9 71
2019-06-12 19:00:00 21.3 17 Nordeste 35 Nordeste 0 1003.7 -0.8 63
2019-06-12 18:00:00 21.9 18 Nordeste 36 Nordeste 0 1004.1 -0.7 58
2019-06-12 17:00:00 22.2 17 Este 32 Nordeste 0 1004.5 -0.7 56
2019-06-12 16:00:00 22.5 16 Este 33 Nordeste 0 1004.5 -0.8 44
2019-06-12 15:00:00 22.3 18 Este 35 Este 0 1004.8 -0.6 46
2019-06-12 14:00:00 22.7 16 Este 31 Este 0 1005.2 -0.2 45
2019-06-12 13:00:00 22.9 11 Este 25 Sudeste 0 1005.3 -0.4 44
2019-06-12 12:00:00 23.3 11 Sudeste 20 Sudeste 0 1005.4 -0.4 39
2019-06-12 11:00:00 22.1 5 Este 12 Nordeste 0 1005.4 0.1 34
2019-06-12 10:00:00 20.4 5 Norte 10 Norte 0 1005.7 0.7 44
2019-06-12 09:00:00 19.5 3 Este 7 Nordeste 0 1005.8 1.4 49
2019-06-12 08:00:00 15.8 3 Noroeste 11 Oeste 0 1005.3 1.1 66
2019-06-12 07:00:00 14.7 5 Noroeste 11 Noroeste 0 1005 1.4 72
2019-06-12 06:00:00 14.6 4 Noroeste 12 Noroeste 0 1004.4 0.4 72
2019-06-12 05:00:00 15.2 4 Noroeste 9 Oeste 0 1004.2 -0.1 71
2019-06-12 04:00:00 16 4 Oeste 9 Oeste 0 1003.6 -0.6 67
2019-06-12 03:00:00 17.2 2 Este 10 Nordeste 0 1004 0.1 64
2019-06-12 02:00:00 16.9 5 Este 9 Este 0 1004.3 0.5 64
2019-06-12 01:00:00 17.4 4 Norte 12 Norte 0 1004.2 1.1 55
2019-06-12 00:00:00 17.8 5 Norte 21 Norte 0 1003.9 1.6 57
2019-06-11 23:00:00 18.1 8 Norte 27 Norte 0 1003.8 2.2 60
2019-06-11 22:00:00 18.3 11 Norte 34 Norte 0 1003.1 2.5 63
2019-06-11 21:00:00 18.6 15 Norte 31 Norte 0 1002.3 2.1 65
2019-06-11 20:00:00 19.7 14 Nordeste 37 Este 0 1001.6 1.5 66
2019-06-11 19:00:00 20.3 19 Este 40 Este 0 1000.6 0.9 64
2019-06-11 18:00:00 22.2 22 Este 39 Este 0 1000.2 0.7 62
2019-06-11 17:00:00 21.6 10 Este 26 Sudeste 0 1000.1 0.3 71
2019-06-11 16:00:00 22.2 12 Este 28 Sudeste 0 999.7 0 66
2019-06-11 15:00:00 24.2 12 Sudeste 26 Sudeste 0 999.5 -0.5 59
2019-06-11 14:00:00 23.9 12 Sudeste 25 Sudeste 0 999.8 -0.2 63
2019-06-11 13:00:00 23.8 11 Este 25 Este 0 999.7 -0.6 64
2019-06-11 12:00:00 23.4 11 Este 24 Nordeste 0 1000 -0.3 60
2019-06-11 11:00:00 23 11 Este 23 Nordeste 0 1000 -0.2 66
2019-06-11 10:00:00 21.8 10 Este 17 Nordeste 0 1000.3 0.3 68
2019-06-11 09:00:00 20.8 6 Nordeste 12 Nordeste 0 1000.3 0.4 72
2019-06-11 08:00:00 17.8 4 Norte 12 Nordeste 0 1000.2 -0.2 61
2019-06-11 07:00:00 16.7 6 Nordeste 9 Nordeste 0 1000 -0.9 63
2019-06-11 06:00:00 17 3 Norte 6 Noroeste 0 999.9 -1.5 80
2019-06-11 05:00:00 16.4 2 Noroeste 5 Noroeste 0 1000.4 -1.7 71
2019-06-11 04:00:00 16.8 3 Noroeste 5 Oeste 0 1000.9 -1.7 72
2019-06-11 03:00:00 17.4 2 Oeste 6 Oeste 0 1001.4 -1.8 72
2019-06-11 02:00:00 18.1 3 Oeste 6 Oeste 0 1002.1 -1.4 73
2019-06-11 01:00:00 19.2 3 Sudoeste 5 Sudoeste 0 1002.6 -0.7 83
2019-06-11 00:00:00 20 0 Calma 6 Nordeste 0 1003.2 0.3 80
2019-06-10 23:00:00 20.3 2 Noroeste 6 Norte 0 1003.5 0.6 78
2019-06-10 22:00:00 20.7 6 Norte 9 Norte 0 1003.3 0.5 77
2019-06-10 21:00:00 21 2 Nordeste 11 Sudeste 0 1002.9 -0.2 73
2019-06-10 20:00:00 21.5 7 Sudeste 15 Sudeste 0 1002.9 -0.5 75
2019-06-10 19:00:00 22.8 8 Sudeste 19 Sudeste 0 1002.8 -0.9 70
2019-06-10 18:00:00 23.6 9 Sudeste 20 Este 0 1003.1 -0.8 67
2019-06-10 17:00:00 25.1 13 Sudeste 23 Este 0 1003.4 -0.6 62
2019-06-10 16:00:00 24.8 13 Este 26 Este 0 1003.7 -0.5 59
2019-06-10 15:00:00 25.2 10 Sudeste 23 Sur 0 1003.9 -0.4 54
2019-06-10 14:00:00 25.3 13 Sudeste 23 Sudeste 0 1004 -0.6 42
2019-06-10 13:00:00 25 11 Sudeste 22 Sudeste 0 1004.2 -0.3 41
2019-06-10 12:00:00 23.6 10 Sudeste 19 Sudeste 0 1004.3 0.1 49
2019-06-10 11:00:00 23.3 9 Sudeste 18 Sudeste 0 1004.6 0.7 57
2019-06-10 10:00:00 23.3 6 Sudeste 11 Este 0 1004.5 1.3 58
2019-06-10 09:00:00 22.1 5 Sudeste 17 Este 0 1004.2 2 67
2019-06-10 08:00:00 20 11 Este 27 Nordeste 0 1003.9 1.8 85
2019-06-10 07:00:00 19.7 10 Nordeste 29 Este 0 1003.2 0.9 86
2019-06-10 06:00:00 21.5 10 Nordeste 21 Nordeste 0 1002.2 -0.5 64
2019-06-10 05:00:00 19.4 2 Noroeste 17 Noroeste 0 1002.1 -1.1 43
2019-06-10 04:00:00 19 2 Oeste 13 Norte 0 1002.3 -1.6 67
2019-06-10 03:00:00 19.8 4 Sudoeste 10 Oeste 0 1002.7 -1.6 67
2019-06-10 02:00:00 19.8 4 Oeste 7 Noroeste 0 1003.2 -1.4 67
2019-06-10 01:00:00 20.5 3 Oeste 7 Noroeste 0 1003.9 -0.1 67
2019-06-10 00:00:00 21.2 5 Oeste 7 Sudoeste 0 1004.3 0.5 67
2019-06-09 23:00:00 22.2 3 Norte 9 Nordeste 0 1004.6 0.8 65
2019-06-09 22:00:00 23.2 7 Nordeste 10 Nordeste 0 1004 0.3 61
2019-06-09 21:00:00 24.9 6 Sudoeste 15 Sur 0 1003.8 -0.2 52
2019-06-09 20:00:00 25.5 9 Sur 17 Sur 0 1003.8 -0.7 51
2019-06-09 19:00:00 26.1 9 Sur 18 Sudeste 0 1003.7 -1.4 55
2019-06-09 18:00:00 25.6 10 Sudeste 18 Sudeste 0 1004 -1.5 55
2019-06-09 17:00:00 24 10 Sudeste 23 Este 0 1004.5 -1.3 64
2019-06-09 16:00:00 24.1 9 Este 19 Este 0 1005.1 -0.7 63
2019-06-09 15:00:00 23.1 9 Este 18 Este 0 1005.5 -1 63
2019-06-09 14:00:00 23.3 7 Sudeste 19 Sudeste 0 1005.8 -0.9 56
2019-06-09 13:00:00 24.1 9 Sudeste 17 Sudeste 0 1005.8 -1 54
2019-06-09 12:00:00 24.4 5 Sur 12 Sudeste 0 1006.5 -0.3 50
2019-06-09 11:00:00 23.5 5 Sudeste 11 Sudeste 0 1006.7 0.2 54
2019-06-09 10:00:00 22.8 4 Este 8 Sudeste 0 1006.8 0.4 58
2019-06-09 09:00:00 20.6 3 Nordeste 9 Nordeste 0 1006.8 1.3 68
2019-06-09 08:00:00 19.5 0 Calma 7 Nordeste 0 1006.5 0.4 58
2019-06-09 07:00:00 19 0 Calma 9 Este 0 1006.4 0.2 59
2019-06-09 06:00:00 19.3 5 Nordeste 10 Nordeste 0 1005.5 -2 56
2019-06-09 05:00:00 19.2 3 Noroeste 10 Oeste 0 1006.1 -2.2 61
2019-06-09 04:00:00 19 2 Noroeste 11 Oeste 0 1006.2 -2.5 60
2019-06-09 03:00:00 19.3 4 Noroeste 10 Noroeste 0 1007.5 -1.2 62
2019-06-09 02:00:00 20.1 6 Noroeste 13 Noroeste 0 1008.3 -0.3 60
2019-06-09 01:00:00 20.3 3 Oeste 12 Sudoeste 0 1008.7 1 71
2019-06-09 00:00:00 21.1 5 Sudoeste 11 Este 0 1008.7 0.9 66
2019-06-08 23:00:00 21.9 5 Este 13 Este 0 1008.6 0.5 52
2019-06-08 22:00:00 22.7 6 Norte 18 Norte 0 1007.7 -0.8 48
2019-06-08 21:00:00 23.4 8 Nordeste 26 Este 0 1007.8 -1 48
2019-06-08 20:00:00 23.7 16 Nordeste 32 Este 0 1008.1 -1.2 47
2019-06-08 19:00:00 23.6 19 Este 37 Este 0 1008.5 -1 53
2019-06-08 18:00:00 24.2 18 Este 38 Este 0 1008.8 -1.1 52
2019-06-08 17:00:00 24.1 20 Este 42 Este 0 1009.3 -1.3 54
2019-06-08 16:00:00 24.5 22 Este 44 Nordeste 0 1009.5 -1.4 54
2019-06-08 15:00:00 24.6 22 Este 44 Nordeste 0 1009.9 -0.9 54
2019-06-08 14:00:00 24.8 22 Este 43 Nordeste 0 1010.6 -0.1 52
2019-06-08 13:00:00 24.2 23 Este 45 Este 0 1010.9 0.5 51
2019-06-08 12:00:00 23.8 22 Este 45 Este 0 1010.8 0.8 56
2019-06-08 11:00:00 23.6 22 Este 41 Este 0 1010.7 0.9 60
2019-06-08 10:00:00 24.2 9 Este 21 Norte 0 1010.4 0.9 52
2019-06-08 09:00:00 23.2 9 Norte 19 Norte 0 1010 0.7 50
2019-06-08 08:00:00 18.9 6 Norte 9 Nordeste 0 1009.8 0.9 53
2019-06-08 07:00:00 17.8 6 Norte 8 Norte 0 1009.5 0.6 55
2019-06-08 06:00:00 18.2 4 Norte 12 Nordeste 0 1009.3 -0.1 53
2019-06-08 05:00:00 18.2 4 Nordeste 12 Nordeste 0 1008.9 -0.2 53
2019-06-08 04:00:00 18.4 7 Norte 13 Nordeste 0 1008.9 -0.2 52
2019-06-08 03:00:00 18.2 5 Norte 10 Nordeste 0 1009.4 0.4 53
2019-06-08 02:00:00 18.9 3 Noroeste 7 Norte 0 1009.1 0.5 50
2019-06-08 01:00:00 19.7 3 Norte 6 Nordeste 0 1009.1 1.4 50
2019-06-08 00:00:00 20.6 3 Norte 10 Nordeste 0 1009 1.8 59
2019-06-07 23:00:00 21.2 5 Nordeste 7 Nordeste 0 1008.6 2.1 67
2019-06-07 22:00:00 21.7 4 Nordeste 12 Nordeste 0 1007.7 1.9 66
2019-06-07 21:00:00 22.8 9 Nordeste 13 Este 0 1007.2 1.5 57
2019-06-07 20:00:00 24.1 7 Sudeste 16 Sudeste 0 1006.5 0.9 42
2019-06-07 19:00:00 25.1 6 Sudeste 17 Sudeste 0 1005.8 0.4 41
2019-06-07 18:00:00 25.5 9 Sudeste 20 Sudeste 0 1005.7 0.5 43
2019-06-07 17:00:00 26 11 Sudeste 21 Sudeste 0 1005.6 0.5 47
2019-06-07 16:00:00 25.6 10 Este 21 Este 0 1005.4 0.6 45
2019-06-07 15:00:00 25.5 14 Sudeste 23 Sudeste 0 1005.2 0.5 53
2019-06-07 14:00:00 26.4 12 Sudeste 22 Sudeste 0 1005.1 0.9 40
2019-06-07 13:00:00 25.8 13 Sudeste 21 Sudeste 0 1004.8 1 47
2019-06-07 12:00:00 24.8 10 Sudeste 18 Sudeste 0 1004.7 1.3 53
2019-06-07 11:00:00 24 7 Sudeste 15 Sudeste 0 1004.2 1.4 49
2019-06-07 10:00:00 22.9 5 Sudeste 11 Sur 0 1003.8 1.7 52
2019-06-07 09:00:00 19.9 2 Sur 9 Noroeste 0 1003.4 1.9 61
2019-06-07 08:00:00 16.5 5 Noroeste 7 Noroeste 0 1002.8 1.5 78
2019-06-07 07:00:00 15.5 0 Calma 5 Noroeste 0 1002.1 0.5 84
2019-06-07 06:00:00 15.7 4 Noroeste 9 Oeste 0 1001.5 -0.4 81
2019-06-07 05:00:00 16.3 4 Oeste 8 Oeste 0 1001.3 -1 79
2019-06-07 04:00:00 17.2 4 Noroeste 9 Noroeste 0 1001.6 -1.1 82
2019-06-07 03:00:00 17.8 4 Norte 9 Norte 0 1001.9 -0.9 81
2019-06-07 02:00:00 18.6 4 Norte 8 Sudeste 0 1002.3 -0.3 80
2019-06-07 01:00:00 18.9 5 Sudeste 7 Sur 0 1002.7 0.8 78
2019-06-07 00:00:00 19 5 Norte 8 Nordeste 0 1002.8 1.3 80
2019-06-06 23:00:00 19.2 5 Nordeste 10 Nordeste 0 1002.6 1.2 79
2019-06-06 22:00:00 19.5 3 Sudeste 13 Sudeste 0 1001.9 0.2 78
2019-06-06 21:00:00 20.3 6 Sudeste 14 Sudeste 0 1001.5 -0.7 74
2019-06-06 20:00:00 21.3 7 Sudeste 19 Sudeste 0 1001.4 -1.3 69
2019-06-06 19:00:00 22.9 10 Sudeste 21 Sudeste 0 1001.7 -1.6 63
2019-06-06 18:00:00 23.6 9 Sudeste 21 Sudeste 0 1002.2 -1.5 61
2019-06-06 17:00:00 24.1 9 Sudeste 26 Sudeste 0 1002.7 -1.3 60
2019-06-06 16:00:00 23.8 11 Este 28 Nordeste 0 1003.3 -0.9 61
2019-06-06 15:00:00 23.8 14 Este 29 Nordeste 0 1003.7 -0.6 63
2019-06-06 14:00:00 24.9 11 Este 23 Sudeste 0 1004 -0.4 50
2019-06-06 13:00:00 24.1 14 Este 26 Nordeste 0 1004.2 -0.4 59
2019-06-06 12:00:00 24.1 14 Este 23 Este 0 1004.3 0.2 60
2019-06-06 11:00:00 23.6 10 Este 24 Nordeste 0 1004.4 0.5 64
2019-06-06 10:00:00 22.5 12 Este 21 Nordeste 0 1004.6 1.1 69
2019-06-06 09:00:00 21.5 9 Nordeste 16 Nordeste 0 1004.1 0.8 53
2019-06-06 08:00:00 18 5 Nordeste 9 Nordeste 0 1003.9 0.8 41
2019-06-06 07:00:00 16.8 6 Norte 17 Nordeste 0 1003.5 0.3 35
2019-06-06 06:00:00 15.7 3 Nordeste 7 Norte 0 1003.3 0 39
2019-06-06 05:00:00 16.4 4 Noroeste 7 Noroeste 0 1003.1 -0.4 36
2019-06-06 04:00:00 17.2 4 Noroeste 8 Noroeste 0 1003.2 -0.4 34
2019-06-06 03:00:00 17.8 4 Noroeste 5 Noroeste 0 1003.3 0 35
2019-06-06 02:00:00 18.3 3 Noroeste 6 Norte 0 1003.5 0.6 36
2019-06-06 01:00:00 19.3 3 Noroeste 6 Noroeste 0 1003.6 1.7 36
2019-06-06 00:00:00 20.5 3 Noroeste 5 Norte 0 1003.3 2.2 44
2019-06-05 23:00:00 22.3 0 Calma 9 Sur 0 1002.9 2.3 47
2019-06-05 22:00:00 23.7 5 Sur 17 Sudoeste 0 1001.9 1.5 49
2019-06-05 21:00:00 25.9 8 Noroeste 27 Noroeste 0 1001.1 0.9 18
2019-06-05 20:00:00 26.9 12 Noroeste 32 Noroeste 0 1000.6 0.5 17
2019-06-05 19:00:00 28.3 12 Noroeste 32 Noroeste 0 1000.4 0.1 16
2019-06-05 18:00:00 29.4 11 Oeste 34 Noroeste 0 1000.2 0.2 15
2019-06-05 17:00:00 28.9 14 Oeste 41 Noroeste 0 1000.1 0.2 16
2019-06-05 16:00:00 28.2 12 Noroeste 36 Noroeste 0 1000.3 1.1 17
2019-06-05 15:00:00 28.3 11 Noroeste 33 Oeste 0 1000 1 16
2019-06-05 14:00:00 29 15 Oeste 43 Noroeste 0 999.9 1.6 13
2019-06-05 13:00:00 28.6 14 Oeste 45 Oeste 0 999.2 1.1 24
2019-06-05 12:00:00 28.1 17 Oeste 40 Oeste 0 999 1.3 20
2019-06-05 11:00:00 27.3 13 Oeste 33 Noroeste 0 998.3 0.9 30
2019-06-05 10:00:00 25.8 14 Noroeste 27 Noroeste 0 998.1 1.2 42
2019-06-05 09:00:00 21.3 5 Sur 11 Sur 0 997.7 0.9 59
2019-06-05 08:00:00 17.7 4 Oeste 10 Oeste 0 997.4 0.3 73
2019-06-05 07:00:00 16.2 4 Noroeste 8 Oeste 0 996.9 -0.9 78
2019-06-05 06:00:00 16.4 4 Oeste 6 Oeste 0 996.8 -1.4 78
2019-06-05 05:00:00 17.2 3 Noroeste 6 Noroeste 0 997.1 -1.8 82
2019-06-05 04:00:00 17.6 3 Noroeste 6 Oeste 0 997.8 -1.5 79
2019-06-05 03:00:00 18.1 4 Norte 7 Norte 0 998.2 -1.4 81
2019-06-05 02:00:00 18.3 2 Noroeste 6 Sudoeste 0 998.9 -0.8 81
2019-06-05 01:00:00 19.1 5 Sudoeste 8 Oeste 0 999.3 -0.1 81
2019-06-05 00:00:00 19.7 5 Sudoeste 12 Sur 0 999.6 0.2 78
2019-06-04 23:00:00 20.3 6 Sur 13 Sur 0 999.7 -0.1 73
2019-06-04 22:00:00 20.8 6 Sur 12 Sudoeste 0 999.4 -0.6 72
2019-06-04 21:00:00 21.5 6 Sudeste 12 Sur 0 999.4 -0.9 69
2019-06-04 20:00:00 22.7 6 Sur 22 Sudeste 0 999.8 -1.1 66
2019-06-04 19:00:00 25.1 10 Sur 21 Sudeste 0 1000 -1.8 53
2019-06-04 18:00:00 25.7 9 Sudeste 18 Sudeste 0 1000.3 -1.7 43
2019-06-04 17:00:00 25.4 10 Sudeste 22 Sudeste 0 1000.9 -1.8 58
2019-06-04 16:00:00 25.9 13 Sur 22 Sur 0 1001.8 -1.4 56
2019-06-04 15:00:00 25.8 11 Sudeste 24 Sudeste 0 1002 -1.5 56
2019-06-04 14:00:00 25.5 14 Sur 22 Sur 0 1002.7 -1 60
2019-06-04 13:00:00 25.7 10 Sudeste 21 Sudeste 0 1003.2 -1.1 59
2019-06-04 12:00:00 25.4 10 Sudeste 18 Sudeste 0 1003.5 -0.6 58
2019-06-04 11:00:00 24.8 7 Sudoeste 14 Sudoeste 0 1003.7 -0.2 52
2019-06-04 10:00:00 22.4 4 Sudoeste 10 Sur 0 1004.3 0.7 63
2019-06-04 09:00:00 20.2 2 Sudoeste 10 Sur 0 1004.1 0.8 73
2019-06-04 08:00:00 16.6 3 Sudoeste 5 Sudoeste 0 1003.9 0.3 63
2019-06-04 07:00:00 15.3 3 Oeste 5 Noroeste 0 1003.6 -0.5 68
2019-06-04 06:00:00 15.8 3 Oeste 4 Noroeste 0 1003.3 -1.4 71
2019-06-04 05:00:00 15.8 2 Noroeste 4 Noroeste 0 1003.6 -1.8 72
2019-06-04 04:00:00 16.3 2 Oeste 4 Oeste 0 1004.1 -1.9 75
2019-06-04 03:00:00 17 2 Noroeste 3 Noroeste 0 1004.7 -1.7 77
2019-06-04 02:00:00 18 2 Oeste 5 Oeste 0 1005.4 -1.2 78
2019-06-04 01:00:00 19.2 2 Sudoeste 7 Sudoeste 0 1006 -0.3 83
2019-06-04 00:00:00 19.9 4 Sudoeste 7 Sudoeste 0 1006.4 0.3 80
2019-06-03 23:00:00 20.3 3 Sudoeste 8 Sudoeste 0 1006.6 0.4 79
2019-06-03 22:00:00 20.7 4 Sur 11 Sudeste 0 1006.3 -0.1 76
2019-06-03 21:00:00 21.9 5 Sudeste 12 Sudeste 0 1006.1 -0.6 68
2019-06-03 20:00:00 23 8 Sudeste 15 Sudeste 0 1006.2 -0.9 60
2019-06-03 19:00:00 24 8 Sudeste 14 Sudeste 0 1006.4 -1.1 57
2019-06-03 18:00:00 25.2 10 Sudeste 18 Sudeste 0 1006.7 -1.4 50
2019-06-03 17:00:00 26.2 8 Sudeste 17 Sudeste 0 1007.1 -1.6 42
2019-06-03 16:00:00 25.8 12 Sudeste 20 Sudeste 0 1007.5 -1.7 35
2019-06-03 15:00:00 25.2 10 Sudeste 19 Sur 0 1008.1 -1.2 43
2019-06-03 14:00:00 25 10 Sudeste 18 Sudeste 0 1008.7 -0.5 51
2019-06-03 13:00:00 24.8 10 Sudeste 18 Sudeste 0 1009.2 0.2 49
2019-06-03 12:00:00 25 8 Sudeste 16 Sudeste 0 1009.3 0.5 47
2019-06-03 11:00:00 24.5 7 Sur 13 Sudeste 0 1009.2 0.4 43
2019-06-03 10:00:00 23.2 6 Este 10 Este 0 1009 0.5 48
2019-06-03 09:00:00 21.3 3 Sur 5 Sudeste 0 1008.8 0.7 49
2019-06-03 08:00:00 16.2 3 Oeste 6 Oeste 0 1008.8 0.7 55
2019-06-03 07:00:00 14.3 3 Oeste 5 Oeste 0 1008.5 0 60
2019-06-03 06:00:00 14.9 3 Oeste 4 Oeste 0 1008.1 -0.9 60
2019-06-03 05:00:00 15.3 3 Noroeste 5 Noroeste 0 1008.1 -1.4 69
2019-06-03 04:00:00 16.1 3 Oeste 7 Noroeste 0 1008.5 -1.4 60
2019-06-03 03:00:00 16.7 4 Noroeste 7 Noroeste 0 1009 -1 61
2019-06-03 02:00:00 17.3 3 Oeste 5 Noroeste 0 1009.5 -0.2 63
2019-06-03 01:00:00 18.3 3 Noroeste 6 Norte 0 1009.9 0.7 63
2019-06-03 00:00:00 19.4 3 Norte 6 Sudeste 0 1010 1 73
2019-06-02 23:00:00 19.9 0 Calma 4 Este 0 1009.7 0.8 67
2019-06-02 22:00:00 20.8 2 Nordeste 7 Norte 0 1009.2 0.3 61
2019-06-02 21:00:00 21.9 4 Sudeste 10 Sur 0 1009 -0.2 58
2019-06-02 20:00:00 23.3 5 Sudeste 15 Sudeste 0 1008.9 -0.5 51
2019-06-02 19:00:00 25.2 9 Sudeste 18 Sudeste 0 1008.9 -0.8 41
2019-06-02 18:00:00 25.5 9 Sudeste 19 Este 0 1009.2 -0.7 43
2019-06-02 17:00:00 26.7 10 Sudeste 20 Sudeste 0 1009.4 -1 29
2019-06-02 16:00:00 26.1 11 Sudeste 20 Sudeste 0 1009.7 -1.2 26
2019-06-02 15:00:00 26.6 10 Sudeste 20 Sudeste 0 1009.9 -1.1 29
2019-06-02 14:00:00 26.9 11 Sudeste 19 Sudeste 0 1010.4 -0.5 27
2019-06-02 13:00:00 26.2 11 Sudeste 19 Sudeste 0 1010.9 0.1 29
2019-06-02 12:00:00 26 8 Sudeste 15 Sur 0 1011 0.4 26
2019-06-02 11:00:00 25.6 8 Sudeste 14 Sudeste 0 1010.9 0.4 25
2019-06-02 10:00:00 24.2 3 Este 7 Este 0 1010.8 0.4 26
2019-06-02 09:00:00 20.1 3 Norte 6 Noroeste 0 1010.6 0.3 39
2019-06-02 08:00:00 15.5 3 Noroeste 5 Oeste 0 1010.5 0.3 49
2019-06-02 07:00:00 13.4 3 Noroeste 7 Noroeste 0 1010.4 -0.5 50
2019-06-02 06:00:00 14.2 4 Noroeste 9 Noroeste 0 1010.3 -1 47
2019-06-02 05:00:00 13.9 3 Noroeste 8 Noroeste 0 1010.2 -1.6 48
2019-06-02 04:00:00 14.5 3 Noroeste 5 Noroeste 0 1010.9 -1.1 49
2019-06-02 03:00:00 15.4 3 Noroeste 4 Norte 0 1011.3 -0.6 46
2019-06-02 02:00:00 16.2 3 Noroeste 4 Noroeste 0 1011.8 0.2 45
2019-06-02 01:00:00 17.4 3 Noroeste 7 Nordeste 0 1012 0.8 46
2019-06-02 00:00:00 18.7 4 Norte 10 Nordeste 0 1011.9 0.9 43
2019-06-01 23:00:00 19.7 4 Nordeste 8 Nordeste 0 1011.6 0.6 37
2019-06-01 22:00:00 20.5 4 Nordeste 10 Este 0 1011.2 0.2 35
2019-06-01 21:00:00 21.7 5 Este 13 Nordeste 0 1011 -0.3 37
2019-06-01 20:00:00 23 9 Nordeste 17 Este 0 1011 -0.6 35
2019-06-01 19:00:00 24.4 9 Nordeste 19 Este 0 1011 -1 33
2019-06-01 18:00:00 25.6 6 Sudeste 18 Sudeste 0 1011.3 -1.1 31
2019-06-01 17:00:00 25.9 10 Sudeste 18 Sudeste 0 1011.6 -1.3 30
2019-06-01 16:00:00 25.3 9 Sudeste 19 Sudeste 0 1012 -1.3 30
2019-06-01 15:00:00 25.8 11 Sudeste 19 Sur 0 1012.4 -1.1 41
2019-06-01 14:00:00 25 10 Sudeste 19 Sudeste 0 1012.9 -0.5 34
2019-06-01 13:00:00 24.2 10 Sudeste 18 Sur 0 1013.3 0 50
2019-06-01 12:00:00 24.4 8 Sudeste 19 Sur 0 1013.5 0.4 50
2019-06-01 11:00:00 24.2 8 Sudeste 14 Sudeste 0 1013.4 0.5 40
2019-06-01 10:00:00 23.1 6 Nordeste 9 Nordeste 0 1013.3 0.6 29
2019-06-01 09:00:00 20 3 Nordeste 6 Norte 0 1013.1 0.6 44
2019-06-01 08:00:00 15.4 6 Norte 10 Norte 0 1012.9 0.4 60
2019-06-01 07:00:00 12.9 3 Noroeste 6 Norte 0 1012.7 -0.1 68
2019-06-01 06:00:00 13.5 3 Noroeste 8 Noroeste 0 1012.5 -0.7 64
2019-06-01 05:00:00 13.9 3 Noroeste 5 Noroeste 0 1012.5 -1.2 70
2019-06-01 04:00:00 14.9 3 Norte 8 Norte 0 1012.8 -1.1 68
2019-06-01 03:00:00 15.4 4 Noroeste 7 Norte 0 1013.2 -0.7 69
2019-06-01 02:00:00 16.2 3 Noroeste 6 Noroeste 0 1013.7 -0.1 66
2019-06-01 01:00:00 17.3 4 Norte 8 Norte 0 1013.9 0.4 65
2019-06-01 00:00:00 18.2 4 Nordeste 7 Nordeste 0 1013.9 0.8 67
2019-05-31 23:00:00 18.8 4 Nordeste 8 Nordeste 0 1013.8 0.6 65
2019-05-31 22:00:00 19.4 5 Nordeste 8 Nordeste 0 1013.5 0.1 56
2019-05-31 21:00:00 20.3 4 Sudeste 9 Sudeste 0 1013.1 -0.5 61
2019-05-31 20:00:00 21.5 7 Este 16 Este 0 1013.2 -0.8 52
2019-05-31 19:00:00 22.9 8 Sudeste 18 Sudeste 0 1013.4 -1.1 49
2019-05-31 18:00:00 24 10 Sudeste 21 Sudeste 0 1013.6 -1.3 46
2019-05-31 17:00:00 23.6 10 Sudeste 22 Sudeste 0 1014 -1.1 49
2019-05-31 16:00:00 23.4 12 Sudeste 23 Sudeste 0 1014.5 -0.9 58
2019-05-31 15:00:00 23.1 13 Sudeste 22 Sudeste 0 1014.9 -0.7 58
2019-05-31 14:00:00 23.5 11 Sudeste 21 Sudeste 0 1015.1 -0.4 55
2019-05-31 13:00:00 23.4 11 Sudeste 19 Sudeste 0 1015.4 0.1 53
2019-05-31 12:00:00 22.7 9 Sudeste 17 Sudeste 0 1015.6 0.9 51
2019-05-31 11:00:00 22.2 8 Sudeste 17 Sudeste 0 1015.5 0.9 47
2019-05-31 10:00:00 21.7 9 Sudeste 18 Sudeste 0 1015.3 1.1 44
2019-05-31 09:00:00 19.7 3 Este 8 Nordeste 0 1014.7 0.7 55
2019-05-31 08:00:00 15.5 0 Calma 6 Oeste 0 1014.6 0.3 68
2019-05-31 07:00:00 13.5 3 Oeste 5 Oeste 0 1014.2 -0.4 75
2019-05-31 06:00:00 13.9 3 Noroeste 6 Oeste 0 1014 -1.1 75
2019-05-31 05:00:00 14.6 3 Noroeste 8 Oeste 0 1014.3 -1.5 74
2019-05-31 04:00:00 14.7 5 Noroeste 11 Noroeste 0 1014.6 -1.4 73
2019-05-31 03:00:00 15.2 4 Oeste 9 Oeste 0 1015.1 -1 70
2019-05-31 02:00:00 15.9 3 Noroeste 6 Noroeste 0 1015.8 -0.4 68
2019-05-31 01:00:00 16.6 3 Noroeste 5 Oeste 0 1016 0.4 66
2019-05-31 00:00:00 17.6 3 Oeste 6 Sudoeste 0 1016.1 0.8 66
2019-05-30 23:00:00 18.2 4 Sudoeste 6 Sudoeste 0 1016.2 1.2 64
2019-05-30 22:00:00 18.6 4 Sudeste 13 Sudeste 0 1015.6 0.5 61
2019-05-30 21:00:00 19.3 6 Sudeste 15 Sudeste 0 1015.3 0.1 58
2019-05-30 20:00:00 20.4 8 Sudeste 20 Sudeste 0 1015 -0.5 53
2019-05-30 19:00:00 21.9 9 Sudeste 18 Sur 0 1015.1 -0.5 48
2019-05-30 18:00:00 22.1 11 Sudeste 21 Sudeste 0 1015.2 -0.6 51
2019-05-30 17:00:00 23.2 9 Sudeste 22 Sudeste 0 1015.5 -0.3 45
2019-05-30 16:00:00 23.4 13 Sudeste 23 Sur 0 1015.6 -0.5 40
2019-05-30 15:00:00 23.2 12 Sudeste 26 Sudeste 0 1015.8 -0.5 44
2019-05-30 14:00:00 23.2 13 Sudeste 21 Sudeste 0 1015.8 -0.2 47
2019-05-30 13:00:00 22.7 12 Sudeste 19 Sudeste 0 1016.1 0.1 46
2019-05-30 12:00:00 22.1 10 Sudeste 19 Sudeste 0 1016.3 0.6 50
2019-05-30 11:00:00 22.1 5 Sur 12 Sur 0 1016 0.6 53
2019-05-30 10:00:00 20.8 2 Sudeste 8 Sudeste 0.4 1016 1.1 56
2019-05-30 09:00:00 19 5 Nordeste 10 Nordeste 0 1015.7 1.3 56
2019-05-30 08:00:00 14.9 5 Norte 8 Noroeste 0 1015.4 1.1 68
2019-05-30 07:00:00 13 5 Norte 7 Norte 0 1014.9 0.4 74
2019-05-30 06:00:00 13.2 3 Noroeste 6 Nordeste 0 1014.4 -0.2 72
2019-05-30 05:00:00 14 3 Norte 9 Noroeste 0 1014.3 -0.6 71
2019-05-30 04:00:00 14.4 5 Noroeste 9 Noroeste 0 1014.5 -0.3 69
2019-05-30 03:00:00 15 2 Noroeste 7 Norte 0 1014.6 -0.1 72
2019-05-30 02:00:00 15.6 4 Noroeste 9 Norte 0 1014.9 0.8 69
2019-05-30 01:00:00 16 5 Norte 9 Norte 0 1014.8 1.7 66
2019-05-30 00:00:00 16.7 5 Norte 9 Nordeste 0 1014.7 2.2 67
2019-05-29 23:00:00 17.5 5 Nordeste 9 Este 0 1014.1 2.3 68
2019-05-29 22:00:00 17.9 5 Nordeste 13 Este 0 1013.1 1.8 66
2019-05-29 21:00:00 18.6 9 Este 19 Este 0 1012.5 1.2 53
2019-05-29 20:00:00 19.6 11 Este 23 Nordeste 0 1011.8 0.4 46
2019-05-29 19:00:00 20.6 14 Este 30 Este 0 1011.3 -0.2 42
2019-05-29 18:00:00 21 12 Este 27 Sudeste 0 1011.3 -0.2 45
2019-05-29 17:00:00 21.6 13 Este 37 Este 0 1011.4 0.1 44
2019-05-29 16:00:00 21.3 19 Este 35 Este 0 1011.5 0.3 41
2019-05-29 15:00:00 21.4 20 Este 38 Este 0 1011.5 0.3 41
2019-05-29 14:00:00 21.8 17 Este 38 Este 0 1011.3 0.2 42
2019-05-29 13:00:00 21.6 18 Este 32 Este 0 1011.2 0.4 42
2019-05-29 12:00:00 21.2 17 Este 29 Este 0 1011.2 0.5 42
2019-05-29 11:00:00 21.4 10 Este 23 Nordeste 0 1011.1 0.9 47
2019-05-29 10:00:00 20.9 10 Nordeste 18 Nordeste 0 1010.8 1.2 52
2019-05-29 09:00:00 18.6 8 Norte 14 Norte 0 1010.7 1.6 54
2019-05-29 08:00:00 16.2 3 Norte 11 Norte 0 1010.2 1.6 65
2019-05-29 07:00:00 14.6 3 Noroeste 11 Nordeste 0 1009.6 1.3 70
2019-05-29 06:00:00 14.8 4 Noroeste 8 Noroeste 0 1009.1 1 73
2019-05-29 05:00:00 15.1 3 Noroeste 5 Noroeste 0 1008.6 0.5 78
2019-05-29 04:00:00 15.7 2 Noroeste 9 Nordeste 0 1008.3 0.4 77
2019-05-29 03:00:00 16.2 3 Norte 6 Norte 0 1008.1 0.3 78
2019-05-29 02:00:00 16.8 3 Norte 7 Norte 0 1008.1 0.8 76
2019-05-29 01:00:00 17.4 3 Norte 9 Nordeste 0 1007.9 1.5 66
2019-05-29 00:00:00 18 4 Nordeste 7 Norte 0 1007.8 2.3 56
2019-05-28 23:00:00 18.6 5 Norte 15 Este 0 1007.3 2.3 64
2019-05-28 22:00:00 18.9 8 Este 21 Este 0 1006.4 2 66
2019-05-28 21:00:00 19.2 10 Este 22 Este 0 1005.5 1.5 74
2019-05-28 20:00:00 20 11 Este 23 Este 0 1005 1 71
2019-05-28 19:00:00 21.6 13 Nordeste 24 Nordeste 0 1004.4 0.3 65
2019-05-28 18:00:00 22.7 11 Este 28 Nordeste 0 1004 0 61
2019-05-28 17:00:00 22.9 14 Este 29 Nordeste 0 1004 -0.1 58
2019-05-28 16:00:00 23 15 Este 31 Nordeste 0 1004.1 -0.1 54
2019-05-28 15:00:00 23.2 19 Este 31 Este 0 1004 -0.2 50
2019-05-28 14:00:00 23.5 14 Este 30 Nordeste 0 1004.1 0 54
2019-05-28 13:00:00 24.3 15 Este 27 Nordeste 0 1004.2 0.2 45
2019-05-28 12:00:00 23.6 10 Este 23 Este 0 1004.2 0.4 52
2019-05-28 11:00:00 23 11 Este 23 Nordeste 0 1004.1 0.9 58
2019-05-28 10:00:00 22.1 10 Nordeste 18 Nordeste 0 1004 1.3 61
2019-05-28 09:00:00 20.8 3 Norte 8 Nordeste 0 1003.8 1.1 74
2019-05-28 08:00:00 18.4 3 Norte 8 Nordeste 0 1003.2 0.7 86
2019-05-28 07:00:00 17.5 4 Norte 6 Norte 0 1002.7 0.4 88
2019-05-28 06:00:00 17.5 3 Norte 8 Norte 0 1002.7 0.5 86
2019-05-28 05:00:00 17.8 5 Norte 9 Nordeste 0 1002.5 -0.1 83
2019-05-28 04:00:00 18.1 5 Nordeste 9 Nordeste 0 1002.3 -0.3 86
2019-05-28 03:00:00 18.4 4 Norte 8 Norte 0 1002.2 -0.6 86
2019-05-28 02:00:00 18.6 4 Nordeste 9 Nordeste 0 1002.6 0.3 86
2019-05-28 01:00:00 18.6 5 Nordeste 10 Este 0 1002.6 0.8 85
2019-05-28 00:00:00 19 4 Este 9 Sudeste 0 1002.8 1 84
2019-05-27 23:00:00 19.4 7 Sudeste 10 Sudeste 0 1002.3 0.7 81
2019-05-27 22:00:00 20 4 Este 7 Sudeste 0 1001.8 0.3 74
2019-05-27 21:00:00 20.9 4 Sudeste 9 Sur 0 1001.8 0 70
2019-05-27 20:00:00 21.7 4 Sudeste 13 Sudeste 0 1001.6 -0.4 67
2019-05-27 19:00:00 21.8 7 Sudeste 17 Sudeste 0 1001.5 -0.9 66
2019-05-27 18:00:00 23 9 Sudeste 19 Sudeste 0 1001.8 -1 63
2019-05-27 17:00:00 23.6 11 Sudeste 21 Este 0 1002 -1.1 61
2019-05-27 16:00:00 24.1 10 Sudeste 23 Sudeste 0 1002.4 -0.8 60
2019-05-27 15:00:00 23.5 13 Sudeste 21 Sudeste 0 1002.8 -0.5 60
2019-05-27 14:00:00 23.4 11 Sudeste 21 Sudeste 0 1003.1 -0.3 59
2019-05-27 13:00:00 24.1 10 Sur 21 Sudeste 0 1003.2 -0.6 56
2019-05-27 12:00:00 24.9 11 Sudeste 19 Sudeste 0 1003.3 -0.4 52
2019-05-27 11:00:00 24.7 3 Sudeste 11 Sudoeste 0 1003.4 -0.4 43
2019-05-27 10:00:00 22.7 5 Sur 10 Sudoeste 0 1003.8 0.1 49
2019-05-27 09:00:00 20.5 3 Sudoeste 6 Noroeste 0 1003.7 0.1 56
2019-05-27 08:00:00 16.4 2 Noroeste 12 Oeste 0 1003.8 -0.1 71
2019-05-27 07:00:00 14.5 5 Noroeste 9 Noroeste 0 1003.7 -0.8 78
2019-05-27 06:00:00 14.9 3 Oeste 5 Noroeste 0 1003.6 -1.3 76
2019-05-27 05:00:00 15.3 3 Noroeste 7 Noroeste 0 1003.9 -1.6 78
2019-05-27 04:00:00 15.6 4 Oeste 10 Oeste 0 1004.5 -1.5 80
2019-05-27 03:00:00 16.2 5 Oeste 10 Oeste 0 1004.9 -1.4 72
2019-05-27 02:00:00 16.8 4 Oeste 6 Noroeste 0 1005.5 -1 74
2019-05-27 01:00:00 17.5 0 Calma 5 Nordeste 0 1006 0 77
2019-05-27 00:00:00 18.1 3 Norte 6 Norte 0 1006.3 0.5 75
2019-05-26 23:00:00 18.7 2 Sudeste 8 Este 0 1006.5 0.7 73
2019-05-26 22:00:00 19.2 5 Este 9 Nordeste 0 1006 0.1 71
2019-05-26 21:00:00 19.9 5 Nordeste 15 Nordeste 0 1005.8 -0.1 70
2019-05-26 20:00:00 21.3 7 Este 17 Este 0 1005.8 -0.2 65
2019-05-26 19:00:00 21.9 8 Este 23 Sudeste 0 1005.9 -0.1 61
2019-05-26 18:00:00 23 10 Sudeste 30 Sudeste 0 1005.9 -0.3 52
2019-05-26 17:00:00 23.6 16 Sudeste 30 Sudeste 0 1006 -0.5 48
2019-05-26 16:00:00 24.3 15 Sur 32 Sur 0 1006 -0.8 43
2019-05-26 15:00:00 24 14 Sudeste 30 Sudeste 0 1006.2 -0.9 49
2019-05-26 14:00:00 24.8 12 Sur 30 Sur 0 1006.5 -0.6 45
2019-05-26 13:00:00 26.1 12 Sur 25 Sudeste 0 1006.8 -0.5 45
2019-05-26 12:00:00 25.6 12 Sudoeste 25 Sur 0 1007.1 -0.2 36
2019-05-26 11:00:00 24.5 9 Sur 17 Sur 0 1007.1 -0.4 38
2019-05-26 10:00:00 22.5 5 Sur 11 Sur 0 1007.3 -0.1 48
2019-05-26 09:00:00 19.2 4 Noroeste 10 Noroeste 0 1007.3 0.1 55
2019-05-26 08:00:00 15.3 4 Oeste 9 Noroeste 0 1007.5 0.1 71
2019-05-26 07:00:00 13.9 5 Oeste 13 Oeste 0 1007.4 -0.4 78
2019-05-26 06:00:00 14.2 5 Noroeste 12 Noroeste 0 1007.2 -1 79
2019-05-26 05:00:00 14.7 3 Noroeste 8 Oeste 0 1007.4 -1.2 80
2019-05-26 04:00:00 15.1 4 Oeste 8 Noroeste 0 1007.8 -1.2 79
2019-05-26 03:00:00 15.3 4 Noroeste 9 Oeste 0 1008.2 -0.9 79
2019-05-26 02:00:00 15.4 4 Oeste 8 Noroeste 0 1008.6 -0.1 78
2019-05-26 01:00:00 16.1 3 Oeste 8 Oeste 0 1009 1 75
2019-05-26 00:00:00 16.4 4 Oeste 9 Oeste 0 1009.1 1.8 76
2019-05-25 23:00:00 17 3 Oeste 7 Nordeste 0 1008.7 2 73
2019-05-25 22:00:00 17.9 5 Norte 17 Este 0 1008 1.5 70
2019-05-25 21:00:00 19 11 Este 20 Nordeste 0 1007.3 0.8 65
2019-05-25 20:00:00 20.1 10 Este 25 Este 0 1006.7 0.3 61
2019-05-25 19:00:00 21.9 10 Este 21 Sudeste 0 1006.5 -0.3 49
2019-05-25 18:00:00 22.9 10 Sudeste 33 Nordeste 0 1006.5 -0.7 48
2019-05-25 17:00:00 23.4 12 Norte 28 Nordeste 0 1006.4 -0.9 43
2019-05-25 16:00:00 20.3 20 Nordeste 35 Nordeste 0 1006.8 -0.6 50
2019-05-25 15:00:00 19.9 19 Norte 35 Norte 0 1007.2 0.2 52
2019-05-25 14:00:00 19.2 15 Norte 32 Nordeste 0 1007.3 0.8 56
2019-05-25 13:00:00 18.6 15 Norte 29 Norte 0 1007.4 1.2 57
2019-05-25 12:00:00 19.9 14 Norte 33 Nordeste 0 1007 1.4 53
2019-05-25 11:00:00 19.3 12 Norte 23 Norte 0 1006.5 1.4 56
2019-05-25 10:00:00 18.1 13 Nordeste 23 Nordeste 0 1006.2 1.4 59
2019-05-25 09:00:00 18.7 3 Nordeste 9 Norte 0 1005.6 1 58
2019-05-25 08:00:00 17.7 3 Norte 12 Norte 0 1005.1 0.5 64
2019-05-25 07:00:00 16.9 5 Norte 7 Norte 0 1004.8 0 66
2019-05-25 06:00:00 17 3 Noroeste 6 Sudoeste 0 1004.6 -0.3 74
2019-05-25 05:00:00 16.9 2 Sur 5 Oeste 0 1004.6 -0.7 76
2019-05-25 04:00:00 16.9 2 Oeste 4 Sudoeste 0 1004.8 -0.9 76
2019-05-25 03:00:00 16.7 2 Sudoeste 6 Sudoeste 0 1004.9 -0.7 77
2019-05-25 02:00:00 16.8 3 Sudoeste 5 Sudoeste 0 1005.3 -0.2 76
2019-05-25 01:00:00 17.1 3 Este 7 Nordeste 0 1005.7 0.6 73
2019-05-25 00:00:00 17.6 2 Sudeste 13 Noroeste 0 1005.6 0.6 72
2019-05-24 23:00:00 17.4 4 Noroeste 8 Noroeste 0 1005.5 1.2 76
2019-05-24 22:00:00 17.5 5 Nordeste 14 Este 0 1005.1 1.6 75
2019-05-24 21:00:00 18.2 5 Este 15 Este 0 1005 1.6 72
2019-05-24 20:00:00 19.3 9 Este 36 Este 0 1004.3 0.9 66
2019-05-24 19:00:00 20.2 15 Este 36 Este 0 1003.5 -0.1 57
2019-05-24 18:00:00 20.4 16 Este 35 Este 0 1003.4 -0.2 41
2019-05-24 17:00:00 21.1 19 Nordeste 34 Este 0 1003.4 -0.4 47
2019-05-24 16:00:00 20.5 14 Este 34 Nordeste 0 1003.6 -0.3 49
2019-05-24 15:00:00 21.1 16 Nordeste 30 Este 0.2 1003.6 -0.4 50
2019-05-24 14:00:00 21.2 11 Nordeste 29 Este 0 1003.8 0 56
2019-05-24 13:00:00 20.1 14 Nordeste 26 Este 0 1003.9 0.3 71
2019-05-24 12:00:00 19.6 13 Este 29 Este 0 1004 1 70
2019-05-24 11:00:00 20.1 16 Este 28 Este 0 1003.8 0.7 66
2019-05-24 10:00:00 19.8 10 Este 26 Este 0 1003.6 0.7 67
2019-05-24 09:00:00 19 9 Este 18 Nordeste 0 1003 0.1 65
2019-05-24 08:00:00 18 4 Nordeste 9 Nordeste 0 1003.1 -0.2 48
2019-05-24 07:00:00 17.2 3 Noroeste 4 Noroeste 0 1002.9 -0.7 49
2019-05-24 06:00:00 18.1 3 Noroeste 5 Noroeste 0 1002.9 -1.4 46
2019-05-24 05:00:00 18.7 3 Noroeste 7 Oeste 0 1003.3 -1.7 40
2019-05-24 04:00:00 18.5 3 Oeste 8 Norte 0 1003.6 -2.2 43
2019-05-24 03:00:00 18.7 3 Norte 5 Noroeste 0 1004.3 -1.7 48
2019-05-24 02:00:00 18.5 3 Noroeste 6 Noroeste 0 1005 -1 50
2019-05-24 01:00:00 18.2 2 Oeste 6 Oeste 0 1005.8 -0.1 52
2019-05-24 00:00:00 19.2 3 Oeste 6 Noroeste 0 1006 0.2 65
2019-05-23 23:00:00 19.9 3 Oeste 4 Sudeste 0 1006 0.1 69
2019-05-23 22:00:00 21 3 Sur 8 Sudeste 0 1005.9 -0.3 66
2019-05-23 21:00:00 22.4 4 Este 8 Sur 0 1005.8 -0.6 52
2019-05-23 20:00:00 22.8 4 Sudeste 9 Sudeste 0 1005.9 -0.9 53
2019-05-23 19:00:00 22.7 5 Este 13 Sudeste 0 1006.2 -1 56
2019-05-23 18:00:00 22.8 8 Sudeste 15 Sudeste 0 1006.4 -0.9 55
2019-05-23 17:00:00 24.2 9 Sudeste 19 Sudeste 0 1006.8 -0.9 47
2019-05-23 16:00:00 25.4 9 Sudeste 23 Sur 0 1007.2 -0.7 35
2019-05-23 15:00:00 26.7 9 Sur 18 Sudeste 0 1007.3 -1.2 28
2019-05-23 14:00:00 26.8 9 Sudeste 19 Sudeste 0 1007.7 -0.9 35
2019-05-23 13:00:00 27.9 10 Sudeste 22 Sudeste 0 1007.9 -0.8 22
2019-05-23 12:00:00 27.1 7 Sur 14 Sur 0 1008.5 -0.1 24
2019-05-23 11:00:00 25.9 5 Sudoeste 13 Sudoeste 0 1008.6 -0.1 20
2019-05-23 10:00:00 23.9 5 Noroeste 10 Noroeste 0 1008.7 0.2 20
2019-05-23 09:00:00 20.6 5 Noroeste 8 Noroeste 0 1008.6 0.1 34
2019-05-23 08:00:00 15.7 4 Noroeste 9 Noroeste 0 1008.7 0 50
2019-05-23 07:00:00 13.9 4 Noroeste 8 Noroeste 0 1008.5 -0.6 53
2019-05-23 06:00:00 13.9 3 Noroeste 6 Noroeste 0 1008.5 -0.7 64
2019-05-23 05:00:00 14.4 0 Calma 5 Noroeste 0 1008.7 -0.4 69
2019-05-23 04:00:00 15.1 3 Oeste 5 Oeste 0 1009.1 0 68
2019-05-23 03:00:00 15.9 3 Oeste 6 Oeste 0 1009.2 0.2 66
2019-05-23 02:00:00 16.6 3 Oeste 5 Oeste 0 1009.1 0.1 69
2019-05-23 01:00:00 17.1 3 Oeste 6 Noroeste 0 1009.1 0.4 70
2019-05-23 00:00:00 18.1 2 Oeste 5 Oeste 0 1009 0.4 78
2019-05-22 23:00:00 18.5 2 Oeste 5 Sudoeste 0 1009 0.5 74
2019-05-22 22:00:00 19.2 2 Sur 8 Sur 0 1008.7 0.3 66
2019-05-22 21:00:00 19.9 4 Sudeste 11 Sudeste 0 1008.6 0 63
2019-05-22 20:00:00 20.9 6 Sudeste 15 Este 0 1008.5 0 57
2019-05-22 19:00:00 22.4 9 Sudeste 17 Sudeste 0 1008.4 -0.2 56
2019-05-22 18:00:00 23.5 8 Sur 19 Sur 0 1008.6 -0.2 52
2019-05-22 17:00:00 23.4 11 Sudeste 22 Sudeste 0 1008.5 -0.4 50
2019-05-22 16:00:00 23.8 12 Sudeste 25 Sur 0 1008.6 -0.5 50
2019-05-22 15:00:00 24.4 12 Sudeste 20 Sudeste 0 1008.8 -- 38
2019-05-22 14:00:00 23.6 13 Sudeste 21 Sudeste 0 1008.9 -- 52
2019-05-22 13:00:00 24.1 9 Sudeste -- -- -- 1009.1 0.4 37
2019-05-22 12:00:00 -- -- -- -- -- -- -- -- --
2019-05-22 11:00:00 -- -- -- -- -- -- -- -- --
2019-05-22 10:00:00 22.2 7 Este 13 Este 0 1008.7 1.1 58
2019-05-22 09:00:00 19.9 3 Norte 6 Norte 0 1008.4 0.9 54
2019-05-22 08:00:00 16.7 3 Oeste 7 Noroeste 0 1008.1 0.6 69
2019-05-22 07:00:00 14.4 2 Noroeste 6 Noroeste 0 1007.6 0.1 82
2019-05-22 06:00:00 14.4 3 Noroeste 7 Noroeste 0 1007.5 -0.2 83
2019-05-22 05:00:00 14.3 3 Noroeste 6 Norte 0 1007.5 -0.3 85
2019-05-22 04:00:00 14.8 3 Norte 5 Norte 0 1007.5 -0.3 86
2019-05-22 03:00:00 15.6 3 Oeste 5 Noroeste 0 1007.7 0 85
2019-05-22 02:00:00 16.3 3 Norte 5 Norte 0 1007.8 0.1 86
2019-05-22 01:00:00 17 2 Norte 6 Norte 0 1007.8 0.7 85
2019-05-22 00:00:00 17.7 3 Noroeste 6 Sudoeste 0 1007.7 1.3 86